createdAt,value
2023-03-13T00:01:36.881Z,98095.59
2023-03-13T00:04:04.927Z,98096.11
2023-03-13T00:06:34.774Z,98099.70
2023-03-13T00:09:04.066Z,98104.80
2023-03-13T00:11:32.346Z,98104.13
2023-03-13T00:14:01.652Z,98106.34
2023-03-13T00:16:30.748Z,98111.96
2023-03-13T00:18:59.336Z,98114.69
2023-03-13T00:21:28.537Z,98115.37
2023-03-13T00:23:56.508Z,98110.61
2023-03-13T00:26:25.999Z,98111.14
2023-03-13T00:28:54.146Z,98106.55
2023-03-13T00:31:23.486Z,98108.60
2023-03-13T00:33:53.289Z,98109.27
2023-03-13T00:36:25.365Z,98112.33
2023-03-13T00:38:53.863Z,98118.83
2023-03-13T00:41:23.039Z,98120.86
2023-03-13T00:43:51.621Z,98123.08
2023-03-13T00:46:21.276Z,98123.59
2023-03-13T00:48:49.303Z,98122.57
2023-03-13T00:51:18.185Z,98120.36
2023-03-13T00:53:47.295Z,98115.59
2023-03-13T00:56:16.590Z,98117.13
2023-03-13T00:58:45.596Z,98119.34
2023-03-13T01:01:24.395Z,98122.75
2023-03-13T01:03:56.267Z,98121.05
2023-03-13T01:06:26.078Z,98125.65
2023-03-13T01:08:54.020Z,98126.00
2023-03-13T01:11:26.111Z,98127.36
2023-03-13T01:14:01.984Z,98138.25
2023-03-13T01:16:30.967Z,98142.34
2023-03-13T01:19:03.749Z,98139.95
2023-03-13T01:21:32.334Z,98136.89
2023-03-13T01:24:00.804Z,98133.66
2023-03-13T01:26:29.191Z,98135.54
2023-03-13T01:28:57.577Z,98140.13
2023-03-13T01:31:27.540Z,98140.12
2023-03-13T01:33:56.909Z,98147.11
2023-03-13T01:36:25.573Z,98149.16
2023-03-13T01:38:54.768Z,98144.39
2023-03-13T01:41:23.666Z,98146.44
2023-03-13T01:43:52.243Z,98150.34
2023-03-13T01:46:21.782Z,98147.45
2023-03-13T01:49:30.268Z,98148.12
2023-03-13T01:52:24.103Z,98148.80
2023-03-13T01:54:59.182Z,98159.01
2023-03-13T01:57:35.356Z,98163.94
2023-03-13T02:00:09.152Z,98163.95
2023-03-13T02:02:51.357Z,98162.06
2023-03-13T02:05:20.861Z,98161.20
2023-03-13T02:07:51.084Z,98161.71
2023-03-13T02:10:19.561Z,98164.09
2023-03-13T02:12:48.552Z,98166.30
2023-03-13T02:15:17.960Z,98171.23
2023-03-13T02:17:47.564Z,98178.20
2023-03-13T02:20:18.195Z,98183.98
2023-03-13T02:22:49.346Z,98184.16
2023-03-13T02:25:24.614Z,98192.83
2023-03-13T02:27:57.771Z,98199.79
2023-03-13T02:30:27.188Z,98203.88
2023-03-13T02:32:55.889Z,98204.55
2023-03-13T02:35:24.401Z,98205.23
2023-03-13T02:37:57.943Z,98205.41
2023-03-13T02:40:28.999Z,98210.51
2023-03-13T02:42:59.219Z,98217.66
2023-03-13T02:45:27.490Z,98217.66
2023-03-13T02:47:55.468Z,98217.31
2023-03-13T02:50:23.732Z,98221.39
2023-03-13T02:53:03.792Z,98219.51
2023-03-13T02:55:35.777Z,98213.73
2023-03-13T02:58:04.140Z,98209.13
2023-03-13T03:00:35.886Z,98213.20
2023-03-13T03:03:03.857Z,98213.53
2023-03-13T03:05:31.790Z,98215.40
2023-03-13T03:07:59.786Z,98216.59
2023-03-13T03:10:28.591Z,98216.92
2023-03-13T03:12:56.780Z,98211.27
2023-03-13T03:15:24.738Z,98211.43
2023-03-13T03:17:53.456Z,98209.39
2023-03-13T03:20:21.491Z,98209.71
2023-03-13T03:22:49.458Z,98214.79
2023-03-13T03:25:17.426Z,98219.55
2023-03-13T03:27:45.803Z,98222.27
2023-03-13T03:30:14.188Z,98222.27
2023-03-13T03:32:42.324Z,98216.33
2023-03-13T03:35:10.423Z,98209.52
2023-03-13T03:37:38.397Z,98212.23
2023-03-13T03:40:06.982Z,98219.70
2023-03-13T03:42:34.950Z,98222.94
2023-03-13T03:45:03.334Z,98225.33
2023-03-13T03:47:31.924Z,98229.41
2023-03-13T03:50:00.898Z,98229.06
2023-03-13T03:52:30.199Z,98227.54
2023-03-13T03:54:58.389Z,98225.16
2023-03-13T03:57:26.304Z,98223.27
2023-03-13T03:59:54.727Z,98221.38
2023-03-13T04:02:23.563Z,98218.30
2023-03-13T04:04:51.999Z,98218.13
2023-03-13T04:07:23.660Z,98219.11
2023-03-13T04:09:52.142Z,98216.38
2023-03-13T04:12:26.258Z,98217.22
2023-03-13T04:14:55.838Z,98216.73
2023-03-13T04:17:23.940Z,98219.61
2023-03-13T04:19:52.012Z,98229.46
2023-03-13T04:22:20.186Z,98227.27
2023-03-13T04:24:51.837Z,98225.21
2023-03-13T04:27:21.136Z,98230.64
2023-03-13T04:29:49.834Z,98234.20
2023-03-13T04:32:39.595Z,98239.27
2023-03-13T04:35:22.846Z,98240.98
2023-03-13T04:38:06.060Z,98245.75
2023-03-13T04:40:36.691Z,98251.38
2023-03-13T04:43:15.614Z,98251.90
2023-03-13T04:46:06.564Z,98250.20
2023-03-13T04:49:08.811Z,98255.30
2023-03-13T04:51:55.610Z,98260.23
2023-03-13T04:54:56.041Z,98259.89
2023-03-13T04:57:56.465Z,98267.02
2023-03-13T05:00:57.201Z,98272.16
2023-03-13T05:03:48.119Z,98277.61
2023-03-13T05:06:31.545Z,98278.30
2023-03-13T05:09:12.108Z,98281.41
2023-03-13T05:12:18.585Z,98281.96
2023-03-13T05:15:05.817Z,98270.44
2023-03-13T05:18:06.033Z,98261.29
2023-03-13T05:20:41.880Z,98262.34
2023-03-13T05:23:20.912Z,98264.22
2023-03-13T05:26:03.738Z,98260.67
2023-03-13T05:28:42.557Z,98256.27
2023-03-13T05:31:16.188Z,98260.87
2023-03-13T05:33:56.230Z,98270.10
2023-03-13T05:36:36.775Z,98273.17
2023-03-13T05:39:18.980Z,98271.66
2023-03-13T05:41:46.789Z,98277.98
2023-03-13T05:44:26.694Z,98279.55
2023-03-13T05:47:20.880Z,98281.94
2023-03-13T05:50:24.477Z,98293.38
2023-03-13T05:53:27.880Z,98305.32
2023-03-13T05:56:28.211Z,98316.24
2023-03-13T05:59:09.891Z,98320.01
2023-03-13T06:01:56.502Z,98310.30
2023-03-13T06:04:32.294Z,98302.13
2023-03-13T06:07:00.433Z,98301.80
2023-03-13T06:09:29.215Z,98298.55
2023-03-13T06:11:58.099Z,98302.31
2023-03-13T06:14:26.177Z,98308.77
2023-03-13T06:17:20.367Z,98313.03
2023-03-13T06:19:48.529Z,98306.87
2023-03-13T06:22:17.077Z,98304.80
2023-03-13T06:24:45.389Z,98302.23
2023-03-13T06:27:13.468Z,98306.27
2023-03-13T06:29:41.329Z,98310.85
2023-03-13T06:32:09.563Z,98310.63
2023-03-13T06:34:37.789Z,98299.65
2023-03-13T06:37:05.940Z,98284.92
2023-03-13T06:39:34.334Z,98279.08
2023-03-13T06:42:02.333Z,98275.27
2023-03-13T06:44:30.483Z,98278.64
2023-03-13T06:46:58.503Z,98279.60
2023-03-13T06:49:26.518Z,98272.88
2023-03-13T06:51:57.119Z,98269.73
2023-03-13T06:54:25.634Z,98267.08
2023-03-13T06:56:53.720Z,98261.38
2023-03-13T06:59:21.583Z,98269.18
2023-03-13T07:01:49.553Z,98272.35
2023-03-13T07:04:17.592Z,98279.98
2023-03-13T07:06:45.744Z,98285.89
2023-03-13T07:09:13.967Z,98295.88
2023-03-13T07:11:42.043Z,98297.14
2023-03-13T07:14:17.013Z,98291.54
2023-03-13T07:16:46.363Z,98290.08
2023-03-13T07:19:15.623Z,98294.80
2023-03-13T07:21:44.430Z,98296.77
2023-03-13T07:24:12.911Z,98296.86
2023-03-13T07:26:48.572Z,98296.45
2023-03-13T07:29:22.427Z,98291.23
2023-03-13T07:31:50.728Z,98286.70
2023-03-13T07:34:18.851Z,98286.11
2023-03-13T07:36:46.930Z,98283.83
2023-03-13T07:39:14.893Z,98281.56
2023-03-13T07:41:42.877Z,98283.89
2023-03-13T07:44:13.499Z,98289.63
2023-03-13T07:46:41.571Z,98295.48
2023-03-13T07:49:10.100Z,98299.75
2023-03-13T07:51:43.978Z,98300.73
2023-03-13T07:54:12.848Z,98298.22
2023-03-13T07:56:40.919Z,98292.05
2023-03-13T07:59:09.517Z,98279.53
2023-03-13T08:01:37.896Z,98272.17
2023-03-13T08:04:06.073Z,98265.84
2023-03-13T08:06:37.535Z,98265.81
2023-03-13T08:09:06.658Z,98268.56
2023-03-13T08:11:34.809Z,98274.16
2023-03-13T08:14:03.166Z,98272.36
2023-03-13T08:16:34.422Z,98274.98
2023-03-13T08:19:06.059Z,98272.80
2023-03-13T08:21:35.661Z,98273.77
2023-03-13T08:24:06.143Z,98273.18
2023-03-13T08:26:36.013Z,98276.58
2023-03-13T08:29:06.332Z,98283.24
2023-03-13T08:31:43.000Z,98284.60
2023-03-13T08:34:12.004Z,98280.37
2023-03-13T08:36:40.886Z,98272.66
2023-03-13T08:39:16.233Z,98271.61
2023-03-13T08:41:44.610Z,98279.83
2023-03-13T08:44:13.917Z,98276.09
2023-03-13T08:46:42.115Z,98276.14
2023-03-13T08:49:10.615Z,98279.73
2023-03-13T08:51:39.265Z,98287.87
2023-03-13T08:54:07.231Z,98289.50
2023-03-13T08:56:35.507Z,98283.83
2023-03-13T08:59:04.802Z,98278.61
2023-03-13T09:01:34.411Z,98276.72
2023-03-13T09:04:04.470Z,98275.10
2023-03-13T09:06:37.216Z,98269.23
2023-03-13T09:09:05.828Z,98266.36
2023-03-13T09:11:34.314Z,98261.27
2023-03-13T09:14:02.553Z,98261.39
2023-03-13T09:16:31.252Z,98261.33
2023-03-13T09:18:59.725Z,98263.66
2023-03-13T09:21:29.744Z,98259.40
2023-03-13T09:23:58.222Z,98254.08
2023-03-13T09:26:27.789Z,98249.06
2023-03-13T09:28:56.031Z,98252.95
2023-03-13T09:31:25.431Z,98255.98
2023-03-13T09:33:53.995Z,98256.11
2023-03-13T09:36:24.152Z,98254.41
2023-03-13T09:38:56.069Z,98248.55
2023-03-13T09:41:44.433Z,98252.98
2023-03-13T09:44:20.592Z,98253.14
2023-03-13T09:46:48.670Z,98250.77
2023-03-13T09:49:25.937Z,98246.02
2023-03-13T09:51:58.777Z,98241.23
2023-03-13T09:54:34.576Z,98237.41
2023-03-13T09:57:08.604Z,98237.95
2023-03-13T09:59:48.690Z,98234.64
2023-03-13T10:02:30.427Z,98233.48
2023-03-13T10:05:13.864Z,98225.20
2023-03-13T10:07:41.916Z,98223.82
2023-03-13T10:10:28.751Z,98222.23
2023-03-13T10:13:00.501Z,98214.67
2023-03-13T10:15:32.312Z,98216.98
2023-03-13T10:18:03.438Z,98209.48
2023-03-13T10:20:35.468Z,98205.33
2023-03-13T10:23:19.316Z,98198.19
2023-03-13T10:25:47.387Z,98189.27
2023-03-13T10:28:17.088Z,98182.81
2023-03-13T10:30:49.568Z,98180.17
2023-03-13T10:33:25.527Z,98178.91
2023-03-13T10:36:08.635Z,98174.42
2023-03-13T10:38:47.571Z,98167.20
2023-03-13T10:41:20.975Z,98158.76
2023-03-13T10:43:53.762Z,98156.66
2023-03-13T10:46:25.643Z,98153.20
2023-03-13T10:48:54.301Z,98147.18
2023-03-13T10:51:23.301Z,98141.46
2023-03-13T10:53:54.237Z,98137.09
2023-03-13T10:56:30.644Z,98128.20
2023-03-13T10:58:59.082Z,98126.91
2023-03-13T11:01:34.837Z,98127.41
2023-03-13T11:04:19.095Z,98123.70
2023-03-13T11:06:58.223Z,98115.70
2023-03-13T11:09:27.836Z,98113.38
2023-03-13T11:11:57.157Z,98112.62
2023-03-13T11:14:26.338Z,98108.66
2023-03-13T11:16:55.730Z,98115.91
2023-03-13T11:20:02.226Z,98114.39
2023-03-13T11:22:34.575Z,98107.01
2023-03-13T11:25:04.179Z,98096.95
2023-03-13T11:27:50.270Z,98097.76
2023-03-13T11:30:22.967Z,98097.05
2023-03-13T11:33:02.689Z,98092.59
2023-03-13T11:35:45.368Z,98087.55
2023-03-13T11:38:20.089Z,98083.30
2023-03-13T11:40:56.436Z,98081.11
2023-03-13T11:43:41.082Z,98079.46
2023-03-13T11:46:22.493Z,98079.00
2023-03-13T11:48:53.487Z,98073.64
2023-03-13T11:51:21.500Z,98072.23
2023-03-13T11:54:08.067Z,98071.25
2023-03-13T11:56:43.672Z,98069.43
2023-03-13T11:59:26.061Z,98066.08
2023-03-13T12:02:19.134Z,98059.52
2023-03-13T12:04:55.066Z,98057.16
2023-03-13T12:07:33.038Z,98050.05
2023-03-13T12:10:05.924Z,98048.42
2023-03-13T12:12:38.265Z,98048.45
2023-03-13T12:15:18.854Z,98044.66
2023-03-13T12:17:51.004Z,98048.86
2023-03-13T12:20:25.665Z,98047.26
2023-03-13T12:23:17.799Z,98045.20
2023-03-13T12:25:52.012Z,98043.13
2023-03-13T12:28:25.154Z,98041.95
2023-03-13T12:31:00.810Z,98037.69
2023-03-13T12:33:32.726Z,98031.00
2023-03-13T12:36:09.602Z,98025.69
2023-03-13T12:38:44.465Z,98022.06
2023-03-13T12:41:24.846Z,98017.86
2023-03-13T12:44:07.813Z,98021.66
2023-03-13T12:46:59.332Z,98022.05
2023-03-13T12:49:40.819Z,98016.54
2023-03-13T12:52:27.831Z,98017.86
2023-03-13T12:55:14.129Z,98017.99
2023-03-13T12:57:54.330Z,98013.90
2023-03-13T13:00:24.189Z,98007.96
2023-03-13T13:03:21.670Z,98006.34
2023-03-13T13:06:00.589Z,98002.38
2023-03-13T13:08:32.044Z,97996.51
2023-03-13T13:11:24.426Z,97992.05
2023-03-13T13:13:52.391Z,97992.52
2023-03-13T13:16:23.557Z,97988.17
2023-03-13T13:18:51.968Z,97980.83
2023-03-13T13:21:21.834Z,97976.39
2023-03-13T13:23:54.039Z,97971.63
2023-03-13T13:26:24.771Z,97966.02
2023-03-13T13:28:53.776Z,97959.35
2023-03-13T13:31:36.974Z,97956.55
2023-03-13T13:34:05.073Z,97952.85
2023-03-13T13:36:40.861Z,97953.27
2023-03-13T13:39:22.874Z,97958.73
2023-03-13T13:41:51.001Z,97960.29
2023-03-13T13:44:23.285Z,97953.55
2023-03-13T13:46:51.489Z,97950.30
2023-03-13T13:49:20.751Z,97951.41
2023-03-13T13:52:04.379Z,97949.50
2023-03-13T13:54:47.434Z,97946.33
2023-03-13T13:57:15.292Z,97943.02
2023-03-13T13:59:45.002Z,97939.77
2023-03-13T14:02:15.535Z,97933.80
2023-03-13T14:04:52.728Z,97928.73
2023-03-13T14:07:30.072Z,97929.39
2023-03-13T14:10:04.395Z,97924.39
2023-03-13T14:12:33.810Z,97921.92
2023-03-13T14:15:19.498Z,97916.34
2023-03-13T14:17:48.898Z,97912.34
2023-03-13T14:20:27.931Z,97911.65
2023-03-13T14:22:59.486Z,97911.13
2023-03-13T14:25:40.668Z,97907.55
2023-03-13T14:28:16.219Z,97903.04
2023-03-13T14:30:44.734Z,97904.02
2023-03-13T14:33:12.769Z,97902.52
2023-03-13T14:35:41.272Z,97900.36
2023-03-13T14:38:20.822Z,97901.75
2023-03-13T14:40:49.730Z,97903.37
2023-03-13T14:43:23.893Z,97899.09
2023-03-13T14:45:52.299Z,97895.14
2023-03-13T14:48:20.350Z,97892.04
2023-03-13T14:50:50.264Z,97889.27
2023-03-13T14:53:20.133Z,97886.09
2023-03-13T14:55:48.969Z,97881.89
2023-03-13T14:58:20.112Z,97876.67
2023-03-13T15:00:48.845Z,97876.14
2023-03-13T15:03:21.689Z,97874.33
2023-03-13T15:05:50.978Z,97875.31
2023-03-13T15:08:20.923Z,97878.65
2023-03-13T15:10:49.503Z,97877.36
2023-03-13T15:13:29.597Z,97876.54
2023-03-13T15:15:58.046Z,97876.05
2023-03-13T15:18:27.522Z,97874.18
2023-03-13T15:21:10.654Z,97871.55
2023-03-13T15:23:38.821Z,97872.46
2023-03-13T15:26:06.785Z,97864.63
2023-03-13T15:28:34.752Z,97861.23
2023-03-13T15:31:02.730Z,97857.73
2023-03-13T15:33:30.769Z,97852.48
2023-03-13T15:35:58.793Z,97851.54
2023-03-13T15:38:27.654Z,97851.20
2023-03-13T15:40:55.587Z,97850.17
2023-03-13T15:43:24.107Z,97846.96
2023-03-13T15:45:52.334Z,97846.60
2023-03-13T15:48:20.352Z,97849.54
2023-03-13T15:50:55.767Z,97850.99
2023-03-13T15:53:29.190Z,97852.33
2023-03-13T15:55:58.160Z,97849.77
2023-03-13T15:58:26.767Z,97849.76
2023-03-13T16:00:55.541Z,97854.97
2023-03-13T16:03:28.555Z,97855.39
2023-03-13T16:05:56.961Z,97851.94
2023-03-13T16:08:35.240Z,97853.34
2023-03-13T16:11:07.613Z,97856.05
2023-03-13T16:13:35.600Z,97860.61
2023-03-13T16:16:07.029Z,97860.88
2023-03-13T16:18:34.971Z,97861.15
2023-03-13T16:21:03.201Z,97864.88
2023-03-13T16:23:31.116Z,97866.77
2023-03-13T16:25:59.225Z,97868.98
2023-03-13T16:28:27.190Z,97870.52
2023-03-13T16:30:56.666Z,97872.34
2023-03-13T16:33:24.763Z,97872.14
2023-03-13T16:35:54.836Z,97869.95
2023-03-13T16:38:22.848Z,97868.31
2023-03-13T16:40:50.854Z,97869.17
2023-03-13T16:43:18.896Z,97868.23
2023-03-13T16:45:47.981Z,97870.16
2023-03-13T16:48:18.821Z,97868.40
2023-03-13T16:50:46.859Z,97865.47
2023-03-13T16:53:14.866Z,97865.04
2023-03-13T16:55:42.835Z,97867.20
2023-03-13T16:58:12.905Z,97862.48
2023-03-13T17:00:40.924Z,97859.73
2023-03-13T17:03:09.015Z,97860.67
2023-03-13T17:05:36.907Z,97857.39
2023-03-13T17:08:04.948Z,97857.04
2023-03-13T17:10:33.625Z,97860.79
2023-03-13T17:13:01.473Z,97861.60
2023-03-13T17:15:29.975Z,97864.05
2023-03-13T17:17:57.932Z,97862.45
2023-03-13T17:20:27.743Z,97870.27
2023-03-13T17:23:01.165Z,97873.27
2023-03-13T17:25:29.086Z,97872.86
2023-03-13T17:27:57.084Z,97872.58
2023-03-13T17:30:26.300Z,97872.55
2023-03-13T17:32:54.475Z,97876.67
2023-03-13T17:35:23.443Z,97875.29
2023-03-13T17:37:51.835Z,97869.97
2023-03-13T17:40:21.344Z,97870.27
2023-03-13T17:42:50.019Z,97872.31
2023-03-13T17:45:18.645Z,97873.49
2023-03-13T17:47:46.879Z,97874.62
2023-03-13T17:50:16.172Z,97870.45
2023-03-13T17:52:44.248Z,97866.81
2023-03-13T17:55:12.629Z,97868.98
2023-03-13T17:57:40.886Z,97864.32
2023-03-13T18:00:15.270Z,97857.41
2023-03-13T18:02:43.316Z,97859.48
2023-03-13T18:05:11.270Z,97863.01
2023-03-13T18:07:44.296Z,97870.15
2023-03-13T18:10:19.799Z,97866.96
2023-03-13T18:12:48.062Z,97862.98
2023-03-13T18:15:15.932Z,97865.88
2023-03-13T18:17:44.335Z,97867.48
2023-03-13T18:20:24.009Z,97871.27
2023-03-13T18:22:52.153Z,97870.08
2023-03-13T18:25:20.112Z,97862.08
2023-03-13T18:27:48.134Z,97857.64
2023-03-13T18:30:17.809Z,97857.55
2023-03-13T18:32:46.514Z,97856.35
2023-03-13T18:35:15.469Z,97857.40
2023-03-13T18:37:44.664Z,97861.41
2023-03-13T18:40:16.431Z,97861.10
2023-03-13T18:42:45.117Z,97859.64
2023-03-13T18:45:26.503Z,97859.55
2023-03-13T18:47:54.882Z,97860.98
2023-03-13T18:50:31.355Z,97860.52
2023-03-13T18:53:00.060Z,97860.52
2023-03-13T18:55:29.179Z,97862.83
2023-03-13T18:57:57.715Z,97859.64
2023-03-13T19:00:26.991Z,97861.70
2023-03-13T19:02:55.098Z,97860.19
2023-03-13T19:05:23.363Z,97854.76
2023-03-13T19:07:51.545Z,97856.48
2023-03-13T19:10:19.537Z,97858.73
2023-03-13T19:12:47.801Z,97859.07
2023-03-13T19:15:16.164Z,97859.92
2023-03-13T19:17:44.421Z,97860.98
2023-03-13T19:20:17.242Z,97861.90
2023-03-13T19:22:45.599Z,97861.23
2023-03-13T19:25:16.421Z,97862.60
2023-03-13T19:27:44.627Z,97865.30
2023-03-13T19:30:20.237Z,97870.19
2023-03-13T19:32:48.826Z,97871.33
2023-03-13T19:35:18.952Z,97869.01
2023-03-13T19:37:47.676Z,97867.25
2023-03-13T19:40:18.496Z,97865.77
2023-03-13T19:42:46.468Z,97861.89
2023-03-13T19:45:17.340Z,97861.23
2023-03-13T19:47:45.367Z,97861.56
2023-03-13T19:50:17.942Z,97864.04
2023-03-13T19:52:46.320Z,97862.11
2023-03-13T19:55:14.284Z,97862.14
2023-03-13T19:57:42.457Z,97860.48
2023-03-13T20:00:37.532Z,97859.83
2023-03-13T20:03:05.593Z,97858.50
2023-03-13T20:05:33.418Z,97858.30
2023-03-13T20:08:01.301Z,97858.13
2023-03-13T20:10:29.237Z,97856.07
2023-03-13T20:12:57.738Z,97855.00
2023-03-13T20:15:25.807Z,97853.07
2023-03-13T20:17:53.778Z,97853.23
2023-03-13T20:20:21.945Z,97855.88
2023-03-13T20:22:49.907Z,97856.16
2023-03-13T20:25:18.094Z,97858.44
2023-03-13T20:27:46.051Z,97855.44
2023-03-13T20:30:13.918Z,97846.60
2023-03-13T20:32:53.015Z,97847.05
2023-03-13T20:35:27.688Z,97847.61
2023-03-13T20:37:58.000Z,97847.51
2023-03-13T20:40:25.880Z,97844.86
2023-03-13T20:42:54.145Z,97846.19
2023-03-13T20:45:22.234Z,97850.66
2023-03-13T20:47:50.491Z,97851.39
2023-03-13T20:50:19.727Z,97848.41
2023-03-13T20:52:48.899Z,97847.67
2023-03-13T20:55:17.472Z,97847.30
2023-03-13T20:57:45.437Z,97843.24
2023-03-13T21:00:14.088Z,97843.82
2023-03-13T21:02:42.456Z,97844.73
2023-03-13T21:05:10.686Z,97850.05
2023-03-13T21:07:38.645Z,97847.41
2023-03-13T21:10:07.125Z,97845.95
2023-03-13T21:12:36.505Z,97843.79
2023-03-13T21:15:06.108Z,97843.67
2023-03-13T21:17:34.517Z,97840.43
2023-03-13T21:20:06.770Z,97836.92
2023-03-13T21:22:35.116Z,97830.38
2023-03-13T21:25:04.971Z,97822.89
2023-03-13T21:27:32.872Z,97821.75
2023-03-13T21:30:00.690Z,97821.77
2023-03-13T21:32:28.714Z,97820.30
2023-03-13T21:34:56.656Z,97817.77
2023-03-13T21:37:24.732Z,97817.50
2023-03-13T21:39:53.249Z,97816.99
2023-03-13T21:42:21.383Z,97816.23
2023-03-13T21:44:49.293Z,97820.76
2023-03-13T21:47:24.279Z,97821.38
2023-03-13T21:49:53.069Z,97819.89
2023-03-13T21:52:21.764Z,97819.58
2023-03-13T21:54:50.092Z,97817.88
2023-03-13T21:57:18.209Z,97815.73
2023-03-13T21:59:46.088Z,97817.29
2023-03-13T22:02:14.155Z,97817.88
2023-03-13T22:04:42.729Z,97816.96
2023-03-13T22:07:11.933Z,97811.73
2023-03-13T22:09:40.416Z,97806.72
2023-03-13T22:12:10.427Z,97807.27
2023-03-13T22:14:38.399Z,97806.98
2023-03-13T22:17:06.393Z,97805.80
2023-03-13T22:19:34.536Z,97804.95
2023-03-13T22:22:03.645Z,97806.67
2023-03-13T22:24:31.500Z,97803.98
2023-03-13T22:26:59.305Z,97800.42
2023-03-13T22:29:30.674Z,97799.98
2023-03-13T22:31:58.997Z,97797.47
2023-03-13T22:34:27.275Z,97790.51
2023-03-13T22:36:55.279Z,97786.63
2023-03-13T22:39:23.221Z,97786.66
2023-03-13T22:41:51.188Z,97783.52
2023-03-13T22:44:19.111Z,97774.92
2023-03-13T22:46:46.912Z,97770.58
2023-03-13T22:49:14.885Z,97768.60
2023-03-13T22:51:42.850Z,97763.70
2023-03-13T22:54:10.725Z,97762.02
2023-03-13T22:56:38.692Z,97755.10
2023-03-13T22:59:06.653Z,97746.99
2023-03-13T23:01:34.636Z,97744.84
2023-03-13T23:04:02.700Z,97742.52
2023-03-13T23:06:30.674Z,97739.84
2023-03-13T23:08:58.644Z,97735.94
2023-03-13T23:11:26.817Z,97731.35
2023-03-13T23:13:54.679Z,97725.39
2023-03-13T23:16:22.553Z,97724.52
2023-03-13T23:18:50.416Z,97721.63
2023-03-13T23:21:18.280Z,97719.25
2023-03-13T23:23:47.310Z,97717.42
2023-03-13T23:26:15.816Z,97712.05
2023-03-13T23:28:43.935Z,97710.70
2023-03-13T23:31:19.195Z,97711.06
2023-03-13T23:33:47.455Z,97706.67
2023-03-13T23:36:16.867Z,97704.83
2023-03-13T23:38:45.132Z,97709.42
2023-03-13T23:41:13.843Z,97708.05
2023-03-13T23:43:41.784Z,97706.39
2023-03-13T23:46:16.789Z,97709.63
2023-03-13T23:48:44.796Z,97711.48
2023-03-13T23:51:12.881Z,97705.67
2023-03-13T23:53:42.620Z,97699.39
2023-03-13T23:56:11.551Z,97703.10
2023-03-13T23:58:39.840Z,97701.28
